Time;durP1;ratioP1;P1;durP2;ratioP2;P2;SDS_P1;SDS_P2;PMS_P1;PMS_P2;Temp;Humidity;BMP_temperature;BMP_pressure;BME280_temperature;BME280_humidity;BME280_pressure;Samples;Min_cycle;Max_cycle;Signal;HPM_P1;HPM_P2
2023/06/05 00:02:33;;;;;;;2.63;2.43;;;;;;;15.52;37.78;99904.72;10298208;28;20432;-68
2023/06/05 00:07:37;;;;;;;3.07;2.77;;;;;;;15.36;38.15;99899.84;10304201;28;20229;-68
2023/06/05 00:12:40;;;;;;;3.00;2.60;;;;;;;15.24;38.45;99892.41;10311802;28;20236;-68
2023/06/05 00:17:42;;;;;;;3.37;2.20;;;;;;;15.31;37.89;99903.97;10316729;28;20233;-70
2023/06/05 00:22:44;;;;;;;5.73;2.40;;;;;;;15.58;37.24;99924.66;10308922;28;20241;-67
2023/06/05 00:27:46;;;;;;;4.17;2.50;;;;;;;15.72;37.10;99936.22;10315053;28;20620;-67
2023/06/05 00:32:48;;;;;;;4.27;2.50;;;;;;;15.95;36.57;99958.09;10305004;28;20241;-67
2023/06/05 00:37:49;;;;;;;3.40;2.13;;;;;;;15.52;36.81;99937.94;10307839;28;20263;-68
2023/06/05 00:42:51;;;;;;;2.50;2.30;;;;;;;16.70;35.72;99953.84;10307906;28;20324;-68
2023/06/05 00:47:53;;;;;;;3.17;2.30;;;;;;;16.09;36.09;99972.34;10309150;28;20307;-68
2023/06/05 00:52:56;;;;;;;3.23;2.60;;;;;;;15.87;36.10;99972.66;10306170;28;20264;-70
2023/06/05 00:57:59;;;;;;;3.17;2.03;;;;;;;15.77;36.48;99971.47;10311526;28;20239;-68
2023/06/05 01:03:01;;;;;;;3.50;2.60;;;;;;;16.68;35.54;99972.16;10304692;28;20765;-68
2023/06/05 01:08:05;;;;;;;2.47;2.27;;;;;;;15.31;36.78;99971.38;10310940;28;20256;-69
2023/06/05 01:13:23;;;;;;;2.53;2.30;;;;;;;16.93;35.00;99993.78;10311345;28;20237;-69
2023/06/05 01:18:26;;;;;;;3.10;2.03;;;;;;;16.48;35.36;100000.16;10302528;28;20258;-68
2023/06/05 01:23:29;;;;;;;4.33;2.23;;;;;;;16.42;35.24;100001.88;10296753;28;20765;-69
2023/06/05 01:28:32;;;;;;;3.00;2.60;;;;;;;16.75;35.30;100005.38;10313732;28;20241;-68
2023/06/05 01:33:42;;;;;;;3.23;2.20;;;;;;;16.77;35.07;99987.06;10303325;28;20936;-69
2023/06/05 01:38:45;;;;;;;2.60;2.40;;;;;;;16.44;35.45;99996.25;10305604;28;20245;-69
2023/06/05 01:43:50;;;;;;;3.33;2.23;;;;;;;16.66;35.49;99987.78;10307774;28;20271;-68
2023/06/05 01:48:54;;;;;;;3.13;2.20;;;;;;;16.01;35.46;100010.38;10306146;28;20235;-70
2023/06/05 01:53:57;;;;;;;2.90;2.10;;;;;;;16.59;35.64;99980.53;10305234;28;20241;-70
2023/06/05 01:58:59;;;;;;;4.47;2.37;;;;;;;15.67;35.93;100006.97;10311520;28;20252;-68
2023/06/05 02:04:05;;;;;;;3.47;2.47;;;;;;;16.78;35.10;99999.53;10293580;28;20238;-68
2023/06/05 02:09:12;;;;;;;3.10;2.73;;;;;;;15.98;35.46;100005.44;10300209;28;20291;-67
2023/06/05 02:14:15;;;;;;;4.00;2.47;;;;;;;15.14;36.65;99979.09;10309720;28;20572;-67
2023/06/05 02:19:18;;;;;;;4.03;2.30;;;;;;;15.95;35.92;100000.44;10301083;28;20229;-70
2023/06/05 02:24:20;;;;;;;3.40;2.80;;;;;;;15.42;36.12;100004.97;10297411;28;20319;-68
2023/06/05 02:29:22;;;;;;;2.50;2.30;;;;;;;16.21;35.32;99999.47;10306907;28;20329;-67
2023/06/05 02:34:24;;;;;;;2.10;1.90;;;;;;;15.50;36.38;100007.44;10300427;28;20225;-67
2023/06/05 02:39:26;;;;;;;3.00;2.10;;;;;;;15.81;35.94;100016.69;10296046;28;20230;-71
2023/06/05 02:44:29;;;;;;;3.30;2.40;;;;;;;15.66;36.20;100008.84;10297868;28;20331;-67
2023/06/05 02:49:32;;;;;;;2.60;2.20;;;;;;;15.24;36.56;100010.19;10300625;28;20280;-67
2023/06/05 02:54:34;;;;;;;2.33;1.93;;;;;;;15.65;35.96;100020.69;10307229;28;20237;-66
2023/06/05 02:59:39;;;;;;;3.13;2.33;;;;;;;15.52;36.54;100018.84;10303317;28;20221;-67
2023/06/05 03:04:42;;;;;;;3.60;2.07;;;;;;;15.97;35.83;100007.28;10308543;28;20406;-67
2023/06/05 03:09:45;;;;;;;2.30;2.10;;;;;;;14.64;37.11;99980.53;10303167;28;20225;-68
2023/06/05 03:14:46;;;;;;;4.60;2.10;;;;;;;14.89;37.12;99999.66;10310312;28;20229;-70
2023/06/05 03:19:48;;;;;;;3.90;2.17;;;;;;;14.57;37.60;99984.06;10298091;28;20742;-68
2023/06/05 03:24:50;;;;;;;2.23;1.87;;;;;;;14.73;36.68;99982.84;10325030;23;20225;-34
2023/06/05 03:29:51;;;;;;;2.20;2.00;;;;;;;14.30;37.04;99972.44;10278003;28;20233;-34
2023/06/05 03:34:53;;;;;;;3.93;1.97;;;;;;;13.78;37.85;99923.63;10279480;28;20234;-34
2023/06/05 03:39:55;;;;;;;2.77;2.07;;;;;;;14.26;37.61;99973.88;10278162;28;20237;-36
2023/06/05 03:44:57;;;;;;;3.47;1.93;;;;;;;15.24;36.81;100018.28;10276240;28;20253;-35
2023/06/05 03:50:00;;;;;;;2.40;2.07;;;;;;;13.66;38.17;99936.84;10288369;28;20240;-35
2023/06/05 03:55:04;;;;;;;2.93;1.70;;;;;;;14.86;36.96;100022.44;10285395;28;20233;-34
2023/06/05 04:00:09;;;;;;;2.03;1.80;;;;;;;15.06;36.64;100018.91;10280730;28;20238;-34
2023/06/05 04:05:12;;;;;;;3.13;2.00;;;;;;;14.30;37.57;100004.72;10276229;28;20230;-34
2023/06/05 04:10:13;;;;;;;2.30;2.10;;;;;;;14.23;37.73;100008.47;10282044;28;20961;-34
2023/06/05 04:15:15;;;;;;;5.60;2.23;;;;;;;14.29;37.98;100013.84;10276447;28;21248;-34
2023/06/05 04:20:17;;;;;;;3.50;1.90;;;;;;;15.17;36.42;100031.75;10282635;28;20651;-34
2023/06/05 04:25:19;;;;;;;3.83;2.10;;;;;;;13.72;37.85;99972.88;10279324;28;20246;-34
2023/06/05 04:30:21;;;;;;;2.63;2.00;;;;;;;16.43;36.15;100046.75;10283785;28;20257;-34
2023/06/05 04:35:23;;;;;;;2.10;1.90;;;;;;;15.41;36.56;100059.94;10277934;28;20598;-35
2023/06/05 04:40:25;;;;;;;3.67;2.23;;;;;;;15.48;36.98;100054.53;10286062;28;20237;-34
2023/06/05 04:45:26;;;;;;;3.93;1.90;;;;;;;14.46;37.61;100037.69;10271871;28;20249;-34
2023/06/05 04:50:29;;;;;;;3.20;2.20;;;;;;;15.26;37.19;100060.16;10281966;28;20256;-34
2023/06/05 04:55:31;;;;;;;2.53;1.80;;;;;;;15.96;36.12;100070.41;10276021;28;20230;-34
2023/06/05 05:00:33;;;;;;;2.43;2.10;;;;;;;17.37;35.29;100046.00;10279650;28;20324;-34
2023/06/05 05:05:36;;;;;;;2.13;1.93;;;;;;;17.20;35.22;100063.88;10273251;28;20312;-34
2023/06/05 05:10:38;;;;;;;2.10;1.90;;;;;;;16.75;35.77;100062.09;10281072;28;20317;-34
2023/06/05 05:15:39;;;;;;;2.70;2.10;;;;;;;18.34;34.47;100023.69;10280243;28;20284;-34
2023/06/05 05:20:41;;;;;;;2.50;1.83;;;;;;;18.01;34.98;100021.38;10282601;28;20263;-34
2023/06/05 05:25:43;;;;;;;2.77;1.70;;;;;;;17.08;34.77;100066.47;10279158;28;20793;-34
2023/06/05 05:30:45;;;;;;;2.57;2.07;;;;;;;16.91;35.67;100069.69;10299078;28;20266;-34
2023/06/05 05:35:47;;;;;;;2.00;1.80;;;;;;;18.52;34.53;100001.09;10267087;28;20242;-34
2023/06/05 05:40:48;;;;;;;2.40;2.10;;;;;;;17.26;35.05;100082.75;10277212;28;20607;-34
2023/06/05 05:45:53;;;;;;;4.97;1.90;;;;;;;18.01;35.02;100030.31;10282889;28;20935;-34
2023/06/05 05:50:55;;;;;;;3.07;1.90;;;;;;;18.12;34.69;100025.19;10276950;28;20610;-35
2023/06/05 05:55:57;;;;;;;2.30;1.97;;;;;;;17.83;35.43;100069.09;10278919;28;20238;-34
2023/06/05 06:01:00;;;;;;;2.60;1.80;;;;;;;17.78;35.13;100035.63;10278282;28;20234;-34
2023/06/05 06:06:03;;;;;;;4.70;1.93;;;;;;;17.84;35.40;100018.47;10274445;28;20245;-34
2023/06/05 06:11:06;;;;;;;4.53;1.80;;;;;;;19.00;34.76;99999.31;10279874;28;20238;-34
2023/06/05 06:16:09;;;;;;;2.27;1.70;;;;;;;17.88;35.94;100071.94;10280702;28;21052;-34
2023/06/05 06:21:11;;;;;;;4.83;2.00;;;;;;;18.87;35.12;99996.78;10277429;28;20326;-34
2023/06/05 06:26:14;;;;;;;2.93;2.00;;;;;;;17.97;35.23;100067.03;10275729;28;20229;-35
2023/06/05 06:31:16;;;;;;;2.83;1.97;;;;;;;18.88;34.46;100006.56;10279016;28;20812;-34
2023/06/05 06:36:18;;;;;;;3.07;1.90;;;;;;;18.39;34.52;100056.31;10283745;28;20752;-34
2023/06/05 06:41:21;;;;;;;5.20;2.00;;;;;;;19.49;34.24;99996.31;10271998;28;20277;-34
2023/06/05 06:46:23;;;;;;;3.13;1.70;;;;;;;19.20;34.15;100042.34;10273190;28;20219;-34
2023/06/05 06:51:24;;;;;;;4.43;2.00;;;;;;;17.91;35.06;100106.66;10275694;28;20349;-34
2023/06/05 06:56:27;;;;;;;5.30;2.40;;;;;;;18.33;35.09;100068.06;10278931;28;20337;-34
2023/06/05 07:01:29;;;;;;;2.90;1.80;;;;;;;20.56;33.81;99956.81;10270526;28;20273;-34
2023/06/05 07:06:32;;;;;;;4.90;2.40;;;;;;;19.55;34.13;100052.34;10271962;28;20781;-34
2023/06/05 07:11:33;;;;;;;3.57;2.00;;;;;;;19.96;34.12;99996.22;10277824;28;20910;-34
2023/06/05 07:16:35;;;;;;;3.80;2.20;;;;;;;18.92;34.94;100073.69;10277620;28;20313;-34
2023/06/05 07:21:37;;;;;;;8.13;2.30;;;;;;;19.50;33.90;100039.50;10257715;28;20868;-34
2023/06/05 07:26:39;;;;;;;3.33;2.47;;;;;;;18.88;34.97;100077.91;10241119;28;20241;-34
2023/06/05 07:31:42;;;;;;;8.85;2.22;;;;;;;20.27;34.71;99956.88;10286301;28;20797;-34
2023/06/05 07:36:45;;;;;;;4.67;2.20;;;;;;;20.53;34.39;99973.63;10279077;28;20238;-34
2023/06/05 07:41:47;;;;;;;2.67;1.83;;;;;;;19.35;34.48;100069.00;10286432;28;20238;-34
2023/06/05 07:46:50;;;;;;;3.38;2.25;;;;;;;20.26;34.35;99985.13;9461414;28;10000391;-34
2023/06/05 07:51:52;;;;;;;3.33;2.10;;;;;;;19.18;34.77;100061.56;10335610;28;20241;-34
2023/06/05 07:56:57;;;;;;;3.30;2.20;;;;;;;18.58;35.53;100072.53;9451522;28;10000227;-34
2023/06/05 08:01:59;;;;;;;5.07;1.90;;;;;;;20.89;33.86;99922.53;9465054;28;10000662;-34
2023/06/05 08:07:02;;;;;;;2.60;2.20;;;;;;;19.86;34.23;100015.84;10322717;28;20232;-34
2023/06/05 08:12:04;;;;;;;5.38;2.28;;;;;;;20.72;33.71;99965.22;10335922;28;20224;-35
2023/06/05 08:17:06;;;;;;;2.63;2.00;;;;;;;20.87;33.87;99962.78;10327786;28;21019;-34
2023/06/05 08:22:08;;;;;;;3.65;2.33;;;;;;;21.70;32.65;99930.13;10324711;28;20230;-35
2023/06/05 08:27:10;;;;;;;5.15;2.50;;;;;;;21.22;33.60;99967.06;10327214;28;20237;-35
2023/06/05 08:32:12;;;;;;;4.45;2.22;;;;;;;21.96;33.16;99919.50;10325248;28;20321;-35
2023/06/05 08:37:14;;;;;;;3.60;2.33;;;;;;;22.24;32.97;99909.41;10325457;28;20238;-35
2023/06/05 08:42:18;;;;;;;3.22;2.05;;;;;;;21.44;33.43;99960.84;10321676;28;20970;-35
2023/06/05 08:47:22;;;;;;;6.00;2.20;;;;;;;22.85;32.67;99865.41;10329994;28;20241;-35
2023/06/05 08:52:25;;;;;;;5.85;2.47;;;;;;;21.46;33.78;99972.28;10331237;28;20320;-35
2023/06/05 08:57:28;;;;;;;4.20;2.40;;;;;;;22.31;33.48;99893.66;10323855;28;20237;-35
2023/06/05 09:02:30;;;;;;;4.18;2.58;;;;;;;22.84;33.28;99847.38;10321003;28;20264;-35
2023/06/05 09:07:33;;;;;;;2.65;2.00;;;;;;;22.64;32.79;99892.56;10326717;28;20250;-34
2023/06/05 09:12:57;;;;;;;3.47;2.40;;;;;;;22.95;32.60;99853.72;10319979;28;20851;-34
2023/06/05 09:18:12;;;;;;;3.17;2.10;;;;;;;23.18;33.26;99841.56;10352493;28;20238;-35
2023/06/05 09:23:41;;;;;;;3.75;2.80;;;;;;;22.60;34.02;99887.91;10353380;28;20232;-35
2023/06/05 09:28:54;;;;;;;3.67;2.65;;;;;;;23.34;32.76;99842.44;10344107;28;20269;-34
2023/06/05 09:33:57;;;;;;;3.67;2.30;;;;;;;23.95;32.41;99796.09;10342509;28;20307;-34
2023/06/05 09:38:59;;;;;;;5.82;2.40;;;;;;;23.92;32.27;99823.97;10353217;28;20267;-34
2023/06/05 09:44:07;;;;;;;5.15;2.85;;;;;;;24.07;32.55;99800.47;10351812;28;20324;-34
2023/06/05 09:49:09;;;;;;;2.78;2.25;;;;;;;24.09;32.86;99792.78;10352849;28;20236;-34
2023/06/05 09:54:12;;;;;;;2.88;2.50;;;;;;;22.93;33.20;99875.81;10349402;28;20602;-34
2023/06/05 09:59:18;;;;;;;3.13;2.70;;;;;;;24.67;32.17;99781.47;10344376;28;20711;-34
2023/06/05 10:04:23;;;;;;;5.07;3.00;;;;;;;24.49;32.65;99761.03;10341142;28;20316;-34
2023/06/05 10:09:25;;;;;;;3.40;2.35;;;;;;;23.82;33.55;99804.84;10342274;28;20221;-34
2023/06/05 10:14:27;;;;;;;3.80;2.53;;;;;;;24.03;33.46;99789.25;10346970;28;20234;-34
2023/06/05 10:19:30;;;;;;;3.55;2.70;;;;;;;24.21;33.08;99771.50;10348856;28;20280;-34
2023/06/05 10:24:37;;;;;;;6.10;2.70;;;;;;;24.44;33.54;99772.78;10345144;28;20268;-34
2023/06/05 10:29:55;;;;;;;3.47;2.65;;;;;;;24.84;32.63;99718.25;10346453;28;20292;-34
2023/06/05 10:35:41;;;;;;;5.25;2.58;;;;;;;25.32;32.96;99729.47;10344408;28;20337;-34
2023/06/05 10:40:45;;;;;;;4.43;2.85;;;;;;;24.94;32.74;99722.84;10345652;28;20290;-34
2023/06/05 10:45:47;;;;;;;3.65;2.63;;;;;;;24.57;33.85;99776.06;10341314;28;20616;-34
2023/06/05 10:51:45;;;;;;;4.55;3.10;;;;;;;24.88;33.76;99746.66;10341535;28;20340;-34
2023/06/05 10:57:01;;;;;;;5.68;3.50;;;;;;;25.98;33.63;99677.94;10343129;28;20610;-35
2023/06/05 11:06:23;;;;;;;5.63;3.85;;;;;;;22.70;36.21;99814.31;10478164;28;20846;-64
2023/06/05 11:11:25;;;;;;;4.85;3.22;;;;;;;24.94;35.07;99709.97;10417043;28;20232;-65
2023/06/05 11:16:32;;;;;;;6.60;3.25;;;;;;;25.70;34.02;99687.78;10415868;28;20228;-65
2023/06/05 11:22:11;;;;;;;5.43;3.42;;;;;;;24.80;34.38;99709.78;10418089;28;20247;-65
2023/06/05 11:27:45;;;;;;;4.55;3.65;;;;;;;25.71;33.84;99698.44;10417038;28;20301;-64
2023/06/05 11:32:47;;;;;;;4.97;3.50;;;;;;;25.24;33.35;99694.47;10417009;28;20238;-65
2023/06/05 11:38:07;;;;;;;8.15;3.53;;;;;;;25.39;32.81;99707.19;10395588;28;20233;-64
2023/06/05 11:43:11;;;;;;;4.40;3.25;;;;;;;24.77;32.88;99753.31;10404098;28;20231;-65
2023/06/05 11:48:14;;;;;;;4.13;3.22;;;;;;;25.39;32.71;99699.81;10413486;28;20250;-65
2023/06/05 11:53:15;;;;;;;7.05;3.60;;;;;;;24.27;32.43;99775.84;10417473;28;20233;-64
2023/06/05 11:58:27;;;;;;;5.63;3.40;;;;;;;25.56;31.86;99710.38;10419660;28;20242;-65
2023/06/05 12:03:29;;;;;;;4.38;3.30;;;;;;;25.07;32.30;99712.06;10416239;28;20232;-65
2023/06/05 12:08:33;;;;;;;3.90;3.10;;;;;;;25.27;31.48;99738.53;10402505;28;20290;-64
2023/06/05 12:13:52;;;;;;;4.82;3.50;;;;;;;26.01;31.22;99664.47;10415509;28;20280;-65
2023/06/05 12:18:53;;;;;;;4.30;3.50;;;;;;;26.11;30.62;99666.25;10389888;28;20317;-66
2023/06/05 12:24:14;;;;;;;3.80;3.40;;;;;;;26.20;29.98;99691.13;10393168;28;20232;-64
2023/06/05 12:29:16;;;;;;;5.82;3.22;;;;;;;26.67;30.16;99625.50;10386885;28;20307;-65
2023/06/05 12:34:18;;;;;;;4.63;3.60;;;;;;;25.22;31.00;99716.66;10384647;28;20416;-64
2023/06/05 12:39:21;;;;;;;7.45;3.47;;;;;;;26.97;30.75;99639.91;10381969;28;20242;-65
2023/06/05 12:44:22;;;;;;;7.22;3.80;;;;;;;26.23;30.64;99654.88;10388446;28;20283;-65
2023/06/05 12:49:24;;;;;;;6.28;3.60;;;;;;;25.71;30.40;99717.63;10389007;28;20302;-65
2023/06/05 12:54:27;;;;;;;9.48;3.63;;;;;;;25.78;30.44;99687.19;10384215;28;20272;-65
2023/06/05 12:59:29;;;;;;;5.05;3.00;;;;;;;25.72;30.34;99694.63;10389891;28;20233;-65
2023/06/05 13:04:33;;;;;;;4.93;3.63;;;;;;;24.44;30.44;99737.25;10390588;28;20234;-64
2023/06/05 13:09:37;;;;;;;5.65;3.63;;;;;;;26.34;29.91;99670.13;10381811;28;20335;-65
2023/06/05 13:14:39;;;;;;;6.07;3.33;;;;;;;25.19;29.49;99717.19;10388843;28;20243;-65
2023/06/05 13:19:41;;;;;;;4.40;3.60;;;;;;;26.67;29.49;99625.50;10381555;28;20240;-65
2023/06/05 13:24:42;;;;;;;6.18;3.72;;;;;;;27.05;28.90;99626.31;10386375;28;20236;-66
2023/06/05 13:29:44;;;;;;;5.00;2.92;;;;;;;25.08;29.65;99726.56;10386892;28;20522;-65
2023/06/05 13:34:46;;;;;;;6.05;3.00;;;;;;;25.47;29.93;99701.13;10386017;28;20232;-65
2023/06/05 13:39:48;;;;;;;6.43;3.42;;;;;;;25.42;28.87;99712.94;10383274;28;20715;-66
2023/06/05 13:44:50;;;;;;;3.53;2.75;;;;;;;26.77;28.49;99617.13;10384574;28;20233;-64
2023/06/05 13:49:53;;;;;;;4.80;2.90;;;;;;;26.92;28.21;99635.31;10381622;28;20216;-65
2023/06/05 13:54:54;;;;;;;3.17;2.88;;;;;;;26.63;28.01;99606.06;10373755;28;20228;-65
2023/06/05 13:59:57;;;;;;;4.28;2.95;;;;;;;25.54;28.03;99698.88;10381853;28;20239;-65
2023/06/05 14:04:58;;;;;;;4.32;2.78;;;;;;;26.26;27.59;99648.00;10381045;28;20240;-64
2023/06/05 14:10:00;;;;;;;5.25;2.90;;;;;;;25.82;28.58;99671.78;10376875;28;20213;-66
2023/06/05 14:15:02;;;;;;;5.47;2.80;;;;;;;26.42;27.72;99635.75;10382839;28;20319;-65
2023/06/05 14:20:05;;;;;;;5.07;2.80;;;;;;;26.58;28.16;99597.91;10384264;28;20206;-67
2023/06/05 14:25:10;;;;;;;4.75;2.75;;;;;;;26.62;27.72;99618.19;10382234;28;26927;-65
2023/06/05 14:30:12;;;;;;;3.78;2.47;;;;;;;25.99;28.31;99674.06;10389442;28;20233;-65
2023/06/05 14:35:16;;;;;;;3.80;2.63;;;;;;;26.11;28.33;99655.28;10383713;28;20911;-66
2023/06/05 14:40:17;;;;;;;3.03;2.60;;;;;;;26.79;26.83;99628.66;10374439;28;20283;-66
2023/06/05 14:45:19;;;;;;;3.65;2.63;;;;;;;25.76;26.79;99684.72;10384146;28;20756;-65
2023/06/05 14:50:21;;;;;;;2.72;2.38;;;;;;;25.11;27.18;99683.00;10366464;28;20975;-66
2023/06/05 14:55:23;;;;;;;5.25;2.40;;;;;;;26.36;27.03;99636.91;10370501;28;20241;-64
2023/06/05 15:05:23;;;;;;;3.15;2.30;;;;;;;25.58;28.35;99658.03;10448618;28;21199;-64
2023/06/05 15:10:26;;;;;;;3.42;2.55;;;;;;;26.13;27.48;99614.69;10445095;28;20274;-63
2023/06/05 15:15:28;;;;;;;3.92;2.70;;;;;;;26.54;27.07;99578.50;10451892;28;20231;-63
2023/06/05 15:20:30;;;;;;;3.80;2.60;;;;;;;25.77;28.05;99630.72;10455110;28;20948;-62
2023/06/05 15:25:33;;;;;;;3.92;2.38;;;;;;;24.54;27.94;99670.75;10446482;28;20236;-61
2023/06/05 15:30:34;;;;;;;6.43;2.38;;;;;;;26.28;27.45;99616.44;10449028;28;20625;-63
2023/06/05 15:35:42;;;;;;;2.35;2.10;;;;;;;25.87;27.34;99655.28;10454454;28;20771;-65
2023/06/05 15:40:44;;;;;;;7.20;3.03;;;;;;;25.68;27.79;99632.47;10448898;28;20304;-64
2023/06/05 15:45:46;;;;;;;4.05;2.40;;;;;;;26.58;27.68;99574.03;10458965;28;20301;-68
2023/06/05 15:50:48;;;;;;;5.68;2.78;;;;;;;24.89;28.13;99644.31;10452938;28;20616;-66
2023/06/05 15:55:50;;;;;;;8.63;2.65;;;;;;;26.49;27.40;99580.50;10444262;28;20998;-69
2023/06/05 16:00:51;;;;;;;2.67;2.47;;;;;;;25.87;28.22;99619.66;10455815;28;20235;-70
2023/06/05 16:05:53;;;;;;;3.75;2.55;;;;;;;26.90;27.73;99552.44;10449792;28;20277;-67
2023/06/05 16:10:57;;;;;;;4.90;2.50;;;;;;;26.63;26.82;99548.44;10448794;28;20243;-63
2023/06/05 16:15:58;;;;;;;3.88;2.50;;;;;;;26.30;28.04;99591.47;10428468;28;20227;-68
2023/06/05 16:21:00;;;;;;;7.25;2.70;;;;;;;25.98;27.36;99606.66;10420360;28;20266;-67
2023/06/05 16:26:02;;;;;;;2.63;2.10;;;;;;;27.17;26.29;99554.44;10418851;28;20613;-64
2023/06/05 16:31:06;;;;;;;5.22;2.40;;;;;;;26.61;27.28;99599.28;10427095;28;20251;-65
2023/06/05 16:36:10;;;;;;;3.03;2.35;;;;;;;24.56;27.45;99671.28;10427700;28;20325;-66
2023/06/05 16:41:11;;;;;;;4.57;2.30;;;;;;;26.66;26.61;99569.81;10416457;28;20248;-65
2023/06/05 16:46:14;;;;;;;3.58;2.45;;;;;;;26.81;26.10;99549.56;10433046;28;20239;-64
2023/06/05 16:51:16;;;;;;;4.72;2.42;;;;;;;27.17;26.53;99548.94;10419323;28;20258;-63
2023/06/05 16:56:18;;;;;;;2.63;2.42;;;;;;;27.07;25.88;99577.41;10430901;28;20655;-64
2023/06/05 17:01:22;;;;;;;2.60;2.40;;;;;;;27.83;25.49;99527.69;10420118;28;20298;-63
2023/06/05 17:06:24;;;;;;;3.97;2.80;;;;;;;26.41;25.92;99605.88;10428546;28;20683;-63
2023/06/05 17:11:27;;;;;;;3.13;2.42;;;;;;;26.97;25.96;99585.00;10423338;28;20225;-64
2023/06/05 17:16:29;;;;;;;6.90;2.90;;;;;;;26.34;26.18;99628.16;10421510;28;20680;-65
2023/06/05 17:21:33;;;;;;;2.92;2.22;;;;;;;26.31;25.96;99607.63;10422701;28;20232;-65
2023/06/05 17:26:35;;;;;;;4.93;2.30;;;;;;;27.03;25.58;99595.59;10421061;28;20271;-64
2023/06/05 17:31:37;;;;;;;3.63;2.10;;;;;;;25.63;26.39;99641.53;10421943;28;20240;-65
2023/06/05 17:36:39;;;;;;;5.68;2.30;;;;;;;26.80;26.12;99608.31;10423762;28;20297;-67
2023/06/05 17:41:41;;;;;;;3.83;2.13;;;;;;;25.70;26.09;99635.72;10416800;28;20267;-68
2023/06/05 17:46:42;;;;;;;5.75;2.10;;;;;;;27.15;26.30;99577.84;10418375;28;20264;-65
2023/06/05 17:51:45;;;;;;;2.58;2.15;;;;;;;26.73;26.35;99636.13;10419172;28;20687;-65
2023/06/05 17:56:47;;;;;;;3.60;2.28;;;;;;;24.87;27.52;99658.28;10420488;28;20244;-63
2023/06/05 18:01:54;;;;;;;3.53;2.40;;;;;;;25.69;26.73;99648.59;10421565;28;20983;-64
2023/06/05 18:06:56;;;;;;;3.30;2.28;;;;;;;26.71;26.13;99619.13;10423924;28;20257;-65
2023/06/05 18:11:57;;;;;;;2.72;2.40;;;;;;;26.46;26.81;99614.81;10426579;28;20676;-65
2023/06/05 18:16:59;;;;;;;3.78;2.10;;;;;;;25.26;26.80;99659.41;10427099;28;20232;-64
2023/06/05 18:22:02;;;;;;;5.38;2.38;;;;;;;26.35;26.78;99625.13;10425605;28;20282;-65
2023/06/05 18:27:05;;;;;;;3.05;2.38;;;;;;;26.22;26.52;99612.16;10426679;28;20234;-65
2023/06/05 18:32:07;;;;;;;2.83;2.33;;;;;;;24.32;27.98;99652.00;10423893;28;20358;-66
2023/06/05 18:37:09;;;;;;;2.92;2.10;;;;;;;25.62;27.72;99634.41;10427345;28;20245;-64
2023/06/05 18:42:10;;;;;;;3.67;2.30;;;;;;;26.50;27.16;99598.59;10423880;28;20725;-66
2023/06/05 18:47:12;;;;;;;2.67;2.20;;;;;;;25.96;27.55;99619.81;10416522;28;20346;-66
2023/06/05 18:52:15;;;;;;;3.28;2.45;;;;;;;26.26;27.52;99609.63;10429653;28;20800;-64
2023/06/05 18:57:18;;;;;;;6.25;2.40;;;;;;;26.58;27.36;99595.97;10426499;28;20236;-64
2023/06/05 19:02:19;;;;;;;4.15;3.00;;;;;;;24.99;28.42;99657.13;10430015;28;20281;-63
2023/06/05 19:07:23;;;;;;;4.47;2.65;;;;;;;26.00;27.82;99623.63;10425926;28;20271;-64
2023/06/05 19:12:24;;;;;;;6.28;3.53;;;;;;;23.05;30.67;99657.31;10421936;28;20315;-64
2023/06/05 19:17:26;;;;;;;4.93;2.42;;;;;;;22.38;31.84;99659.84;10425706;28;20826;-62
2023/06/05 19:22:28;;;;;;;2.53;2.33;;;;;;;22.87;32.10;99669.53;10429383;28;20232;-63
2023/06/05 19:27:30;;;;;;;4.45;2.42;;;;;;;23.15;31.62;99662.00;10422478;28;20238;-67
2023/06/05 19:32:31;;;;;;;2.22;2.00;;;;;;;22.25;32.17;99679.41;10424290;28;20255;-64
2023/06/05 19:37:34;;;;;;;5.45;2.50;;;;;;;22.87;31.97;99685.91;10422924;28;20236;-66
2023/06/05 19:42:35;;;;;;;4.28;2.50;;;;;;;22.21;32.20;99708.28;10420790;28;20224;-66
2023/06/05 19:47:38;;;;;;;3.85;2.30;;;;;;;21.49;32.52;99680.53;10422287;28;20243;-64
2023/06/05 19:52:40;;;;;;;3.85;2.28;;;;;;;21.42;32.58;99718.84;10435760;28;20829;-66
2023/06/05 19:57:42;;;;;;;3.03;2.08;;;;;;;22.18;31.93;99725.97;10429927;28;20232;-65
2023/06/05 20:02:44;;;;;;;4.03;2.30;;;;;;;21.89;32.08;99736.38;10424596;28;20231;-68
2023/06/05 20:07:46;;;;;;;3.30;2.38;;;;;;;21.37;32.49;99740.56;10437663;28;20399;-65
2023/06/05 20:12:51;;;;;;;2.90;2.10;;;;;;;21.40;33.09;99749.03;10428372;28;20335;-66
2023/06/05 20:17:53;;;;;;;6.72;2.60;;;;;;;20.84;33.22;99751.16;10431584;28;20271;-64
2023/06/05 20:22:55;;;;;;;6.63;2.30;;;;;;;20.65;33.61;99754.16;10438081;28;20236;-63
2023/06/05 20:27:57;;;;;;;3.33;2.30;;;;;;;20.04;34.28;99764.13;10431528;28;20228;-66
2023/06/05 20:32:59;;;;;;;5.05;2.22;;;;;;;19.76;34.64;99760.44;10429112;28;20228;-64
2023/06/05 20:38:07;;;;;;;2.78;2.33;;;;;;;20.23;34.58;99768.28;10397923;28;20324;-65
2023/06/05 20:43:09;;;;;;;3.13;2.28;;;;;;;19.35;35.40;99757.81;10394929;28;20672;-65
2023/06/05 20:48:10;;;;;;;3.60;2.55;;;;;;;20.00;34.55;99782.00;10390188;28;20978;-65
2023/06/05 20:53:14;;;;;;;3.95;2.30;;;;;;;19.63;34.97;99782.47;10387013;28;20232;-66
2023/06/05 20:58:15;;;;;;;3.17;2.30;;;;;;;19.40;35.11;99784.25;10387241;28;20226;-67
2023/06/05 21:03:17;;;;;;;4.82;2.50;;;;;;;19.73;34.99;99788.09;10391723;28;20286;-64
2023/06/05 21:08:19;;;;;;;2.53;2.05;;;;;;;19.51;35.06;99788.75;10385285;28;20654;-64
2023/06/05 21:13:21;;;;;;;3.40;2.42;;;;;;;19.45;35.02;99784.31;10386233;28;20322;-65
2023/06/05 21:18:22;;;;;;;5.57;2.38;;;;;;;19.18;35.46;99795.75;10385937;28;20706;-63
2023/06/05 21:23:24;;;;;;;4.53;2.63;;;;;;;19.29;35.33;99795.97;10383268;28;20750;-64
2023/06/05 21:28:26;;;;;;;3.40;2.40;;;;;;;19.12;35.21;99798.63;10388136;28;20813;-66
2023/06/05 21:33:28;;;;;;;4.10;2.40;;;;;;;19.57;34.93;99808.72;10385579;28;20248;-63
2023/06/05 21:38:30;;;;;;;4.57;2.30;;;;;;;19.11;34.88;99816.75;10388462;28;20228;-63
2023/06/05 21:43:32;;;;;;;4.55;2.50;;;;;;;18.77;35.44;99822.00;10387201;28;20239;-65
2023/06/05 21:48:34;;;;;;;3.85;2.58;;;;;;;20.08;33.97;99797.88;10381929;28;20338;-63
2023/06/05 21:53:35;;;;;;;3.72;2.40;;;;;;;19.88;33.84;99817.38;10386856;28;20311;-64
2023/06/05 21:58:37;;;;;;;3.70;2.47;;;;;;;19.23;34.27;99838.41;10376828;28;20244;-64
2023/06/05 22:03:39;;;;;;;2.50;2.30;;;;;;;18.91;34.59;99836.13;10383324;28;20332;-65
2023/06/05 22:08:41;;;;;;;4.35;2.70;;;;;;;19.31;34.29;99837.22;10384566;28;20288;-64
2023/06/05 22:13:44;;;;;;;2.83;2.22;;;;;;;20.13;33.26;99819.69;10384972;28;20314;-64
2023/06/05 22:18:49;;;;;;;3.67;2.38;;;;;;;19.30;34.14;99851.84;10385281;28;20902;-64
2023/06/05 22:23:50;;;;;;;3.75;2.30;;;;;;;19.22;34.34;99839.50;10379422;28;20724;-65
2023/06/05 22:28:53;;;;;;;3.45;2.40;;;;;;;18.98;34.56;99850.41;10384839;28;20331;-65
2023/06/05 22:33:55;;;;;;;4.28;2.55;;;;;;;18.53;35.37;99839.38;10381433;28;20252;-65
2023/06/05 22:38:58;;;;;;;2.70;2.30;;;;;;;18.75;35.20;99845.81;10387024;28;20263;-65
2023/06/05 22:43:59;;;;;;;3.37;2.50;;;;;;;18.13;35.73;99843.53;10389301;28;20684;-65
2023/06/05 22:49:02;;;;;;;5.70;2.97;;;;;;;18.80;35.34;99843.22;10385860;28;20690;-67
2023/06/05 22:54:04;;;;;;;6.57;3.33;;;;;;;18.72;35.64;99854.41;10384797;28;20239;-65
2023/06/05 22:59:06;;;;;;;3.57;2.47;;;;;;;19.45;35.05;99846.75;10381765;28;20229;-65
2023/06/05 23:04:08;;;;;;;3.67;2.77;;;;;;;18.69;35.65;99873.03;10385104;28;20327;-65
2023/06/05 23:09:10;;;;;;;4.90;2.80;;;;;;;18.75;35.99;99867.50;10380960;28;20236;-65
2023/06/05 23:14:12;;;;;;;4.57;3.00;;;;;;;19.90;35.36;99835.06;10382009;28;20408;-65
2023/06/05 23:19:14;;;;;;;6.47;2.50;;;;;;;18.54;37.23;99866.22;10374012;28;20782;-65
2023/06/05 23:24:16;;;;;;;4.17;3.03;;;;;;;19.14;36.30;99856.16;10385081;28;20287;-64
2023/06/05 23:29:18;;;;;;;6.50;2.70;;;;;;;18.13;38.31;99869.78;10387819;28;20282;-63
2023/06/05 23:34:20;;;;;;;3.80;2.87;;;;;;;18.71;37.87;99860.06;10376804;28;20221;-63
2023/06/05 23:39:21;;;;;;;5.77;2.67;;;;;;;18.11;39.08;99861.91;10392223;28;20228;-64